KMPV

Edward F Knapp State Airport

Barre/Montpelier, Vermont, USA
METAR KMPV 201451Z AUTO 00000KT 3/4SM -RA BR SCT022 BKN050 OVC070 04/04 A3018 RMK AO2 RAE1356B04 SLP232 P0000 60001 T00390039 58003
Observed Flight Rules
Feb-20 @ 14:51 UTC (2 hours ago) Instrument Flight Rules
Wind Visibility Clouds Conditions
Calm 3/4 miles
  • Scattered at 2,200' AGL
  • Broken at 5,000' AGL
  • Overcast at 7,000' AGL
  • Light Rain
  • Mist
Temperatures Readings Precipitation
Current 4°C / 39°F
Dewpoint 4°C / 39°F
Humidity 100%
Altimeter 30.18" Hg
Pressure 1023.2 hPa
Elevation 343
Current Rain 0.005
METAR KMPV 201451Z AUTO 00000KT 3/4SM -RA BR SCT022 BKN050 OVC070 04/04 A3018 RMK AO2 RAE1356B04 SLP232 P0000 60001 T00390039 58003
Observed Flight Rules
Feb-20 @ 14:51 UTC
(2 hours ago)
LIFR
Wind Visibility
Calm 3/4 miles
Clouds
  • Scattered at 2,200' AGL
  • Broken at 5,000' AGL
  • Overcast at 7,000' AGL
Conditions
  • Light Rain
  • Mist
Temperature Dewpoint
4°C / 39°F 4°C / 39°F
Humidity Altimeter Pressure
100% 30.18" Hg 1023.2 hPa
Current Rain
0.005